KSBA

Santa Barbara Municipal Airport

Santa Barbara, California, USA
METAR KSBA 211353Z 35003KT 10SM SCT040 13/09 A2985 RMK AO2 SLP109 T01330089
Observed Flight Rules
May-21 @ 13:53 UTC (an hour ago) Visual Flight Rules
Wind Visibility Clouds
350° at 3 knots 10 miles
  • Scattered at 4,000' AGL
Temperatures Readings
Current 13°C / 55°F
Dewpoint 9°C / 48°F
Humidity 77%
Altimeter 29.85" Hg
Pressure 1010.9 hPa
Elevation 3
METAR KSBA 211353Z 35003KT 10SM SCT040 13/09 A2985 RMK AO2 SLP109 T01330089
Observed Flight Rules
May-21 @ 13:53 UTC
(an hour ago)
VFR
Wind Visibility
350° at 3 knots 10 miles
Clouds
  • Scattered at 4,000' AGL
Temperature Dewpoint
13°C / 55°F 9°C / 48°F
Humidity Altimeter Pressure
77% 29.85" Hg 1010.9 hPa